Time;durP1;ratioP1;P1;durP2;ratioP2;P2;SDS_P1;SDS_P2;PMS_P1;PMS_P2;Temp;Humidity;BMP_temperature;BMP_pressure;BME280_temperature;BME280_humidity;BME280_pressure;Samples;Min_cycle;Max_cycle;Signal;HPM_P1;HPM_P2
2023/08/20 00:00:06;;;;;;;5.13;3.92;;;;;;;24.87;74.59;99323.84;5109809;28;20216;-60
2023/08/20 00:02:37;;;;;;;5.20;3.88;;;;;;;24.90;74.61;99333.06;5110086;28;20212;-60
2023/08/20 00:05:04;;;;;;;5.10;3.95;;;;;;;24.86;75.66;99332.66;5109820;28;20192;-60
2023/08/20 00:07:32;;;;;;;5.05;3.90;;;;;;;24.83;75.64;99338.28;5109698;27;20623;-60
2023/08/20 00:09:59;;;;;;;5.15;3.72;;;;;;;24.81;75.63;99329.81;5109968;28;20466;-60
2023/08/20 00:12:27;;;;;;;4.90;3.65;;;;;;;24.79;75.13;99331.84;5109793;28;20232;-60
2023/08/20 00:14:58;;;;;;;5.47;3.70;;;;;;;24.80;75.81;99328.22;5109406;28;20205;-60
2023/08/20 00:17:27;;;;;;;6.90;3.88;;;;;;;24.81;76.21;99329.81;5109866;28;20202;-60
2023/08/20 00:19:55;;;;;;;5.15;3.72;;;;;;;24.78;76.54;99331.06;5109666;28;20288;-60
2023/08/20 00:22:23;;;;;;;7.00;4.28;;;;;;;24.77;77.25;99323.38;5109375;28;20633;-60
2023/08/20 00:24:50;;;;;;;5.18;3.75;;;;;;;24.74;77.23;99314.13;5109603;27;20229;-60
2023/08/20 00:27:18;;;;;;;4.93;3.72;;;;;;;24.70;77.45;99327.81;5109599;28;20694;-60
2023/08/20 00:29:45;;;;;;;4.20;3.42;;;;;;;24.69;77.65;99320.94;5108875;28;20225;-60
2023/08/20 00:32:13;;;;;;;8.00;4.32;;;;;;;24.66;77.67;99321.34;5109230;28;20208;-60
2023/08/20 00:34:40;;;;;;;5.13;3.92;;;;;;;24.62;78.37;99316.50;5109741;28;20205;-60
2023/08/20 00:37:07;;;;;;;4.88;3.72;;;;;;;24.58;78.37;99312.69;5109228;28;20282;-60
2023/08/20 00:39:33;;;;;;;6.13;3.58;;;;;;;24.56;78.64;99317.28;5108660;28;20213;-60
2023/08/20 00:42:00;;;;;;;6.25;3.70;;;;;;;24.49;78.96;99320.88;5109242;28;20201;-60
2023/08/20 00:44:27;;;;;;;6.07;3.50;;;;;;;24.43;79.13;99321.66;5108942;28;20225;-60
2023/08/20 00:46:54;;;;;;;4.35;3.50;;;;;;;24.39;79.29;99321.22;5108500;28;20208;-60
2023/08/20 00:49:23;;;;;;;6.28;3.75;;;;;;;24.39;79.23;99322.00;5109126;28;20194;-60
2023/08/20 00:51:51;;;;;;;6.10;3.65;;;;;;;24.36;79.34;99322.41;5109326;28;20197;-60
2023/08/20 00:54:18;;;;;;;4.90;3.55;;;;;;;24.35;79.46;99325.22;5108735;28;20694;-60
2023/08/20 00:56:46;;;;;;;5.32;3.80;;;;;;;24.35;79.25;99325.22;5108709;28;20674;-60
2023/08/20 00:59:12;;;;;;;5.35;3.78;;;;;;;24.31;79.40;99324.00;5109028;28;20212;-60
2023/08/20 01:01:39;;;;;;;5.70;4.00;;;;;;;24.29;79.94;99326.81;5108578;28;20189;-60
2023/08/20 01:04:07;;;;;;;6.38;3.70;;;;;;;24.31;80.82;99324.00;5108459;28;20236;-60
2023/08/20 01:06:45;;;;;;;6.32;3.80;;;;;;;24.31;80.35;99324.00;5108910;28;20197;-60
2023/08/20 01:09:20;;;;;;;4.50;3.47;;;;;;;24.27;80.21;99323.56;5108398;28;20193;-60
2023/08/20 01:11:56;;;;;;;5.20;3.70;;;;;;;24.25;79.58;99324.75;5108122;28;20205;-60
2023/08/20 01:14:22;;;;;;;6.85;3.42;;;;;;;24.25;79.58;99330.00;5109025;28;20224;-60
2023/08/20 01:16:49;;;;;;;6.10;3.97;;;;;;;24.21;79.76;99328.78;5108419;28;20197;-60
2023/08/20 01:19:20;;;;;;;5.13;3.70;;;;;;;24.23;80.15;99329.38;5108002;28;20255;-60
2023/08/20 01:22:06;;;;;;;5.75;4.05;;;;;;;24.20;80.01;99325.31;5108515;28;20204;-60
2023/08/20 01:24:57;;;;;;;6.55;3.83;;;;;;;24.19;80.03;99326.34;5108640;28;20828;-60
2023/08/20 01:27:44;;;;;;;5.80;4.00;;;;;;;24.18;79.11;99336.00;5108005;28;20189;-59
2023/08/20 01:30:13;;;;;;;6.03;4.15;;;;;;;24.12;80.03;99331.53;5108618;28;20291;-60
2023/08/20 01:32:43;;;;;;;5.80;3.83;;;;;;;24.07;80.44;99333.91;5108185;28;20201;-60
2023/08/20 01:35:13;;;;;;;4.72;3.47;;;;;;;24.00;81.37;99332.25;5107811;28;20587;-60
2023/08/20 01:37:40;;;;;;;5.85;3.63;;;;;;;24.00;81.94;99343.53;5108678;28;20329;-60
2023/08/20 01:40:10;;;;;;;5.60;4.07;;;;;;;23.99;81.70;99341.91;5108720;28;20705;-60
2023/08/20 01:42:37;;;;;;;7.32;3.78;;;;;;;24.01;80.91;99339.91;5107992;28;20232;-60
2023/08/20 01:45:04;;;;;;;5.85;4.25;;;;;;;23.92;81.32;99335.84;5108022;28;20232;-59
2023/08/20 01:47:33;;;;;;;4.50;3.83;;;;;;;23.90;81.71;99335.22;5108341;28;20251;-60
2023/08/20 01:49:59;;;;;;;6.60;4.20;;;;;;;23.90;81.89;99335.22;5107759;28;20206;-60
2023/08/20 01:52:26;;;;;;;6.00;4.00;;;;;;;23.87;82.29;99336.41;5106913;28;20197;-60
2023/08/20 01:54:53;;;;;;;7.60;4.15;;;;;;;23.85;82.56;99334.97;5108354;28;20208;-60
2023/08/20 01:57:20;;;;;;;6.88;3.95;;;;;;;;;;5108139;28;20223;-60
2023/08/20 01:59:48;;;;;;;7.00;4.25;;;;;;;23.79;83.26;99340.97;5107342;28;20228;-60
2023/08/20 02:02:15;;;;;;;5.97;4.20;;;;;;;23.77;83.32;99338.56;5108079;28;20604;-60
2023/08/20 02:04:43;;;;;;;6.75;4.18;;;;;;;23.77;83.85;99337.75;5108268;28;20247;-60
2023/08/20 02:07:10;;;;;;;6.90;4.22;;;;;;;23.76;84.25;99342.13;5107671;28;20204;-60
2023/08/20 02:09:37;;;;;;;6.18;4.45;;;;;;;23.71;84.72;99340.13;5108397;28;20197;-60
2023/08/20 02:12:04;;;;;;;6.88;4.57;;;;;;;23.71;85.39;99340.13;5108087;28;20677;-60
2023/08/20 02:14:34;;;;;;;7.57;4.80;;;;;;;23.70;86.22;99337.69;5107334;28;20682;-60
2023/08/20 02:17:01;;;;;;;6.20;4.25;;;;;;;23.65;86.56;99335.63;5108214;28;20201;-59
2023/08/20 02:19:28;;;;;;;6.22;4.22;;;;;;;23.62;86.99;99338.63;5108073;28;20193;-60
2023/08/20 02:21:56;;;;;;;7.35;4.90;;;;;;;23.57;87.72;99348.00;5107833;28;20215;-60
2023/08/20 02:24:23;;;;;;;6.35;4.97;;;;;;;23.49;88.22;99341.09;5107307;28;20239;-60
2023/08/20 02:26:50;;;;;;;6.30;4.72;;;;;;;23.43;88.71;99336.63;5108179;28;20724;-60
2023/08/20 02:29:17;;;;;;;7.57;4.75;;;;;;;23.41;87.93;99339.41;5107932;28;20198;-60
2023/08/20 02:31:43;;;;;;;5.95;4.68;;;;;;;23.37;88.38;99343.41;5107369;28;20209;-60
2023/08/20 02:34:10;;;;;;;8.82;4.78;;;;;;;23.36;88.39;99347.03;5108137;28;20194;-60
2023/08/20 02:36:37;;;;;;;7.05;4.70;;;;;;;23.34;88.48;99348.19;5108363;28;20194;-60
2023/08/20 02:39:07;;;;;;;7.32;4.43;;;;;;;23.23;88.44;99358.13;5107364;28;20212;-60
2023/08/20 02:41:34;;;;;;;6.30;4.03;;;;;;;23.20;87.77;99353.28;5107732;28;20284;-60
2023/08/20 02:44:01;;;;;;;8.75;4.50;;;;;;;23.19;87.24;99346.47;5107649;28;20241;-59
2023/08/20 02:46:28;;;;;;;6.15;4.60;;;;;;;23.14;86.87;99343.59;5107271;28;20212;-60
2023/08/20 02:48:55;;;;;;;6.60;4.80;;;;;;;23.10;87.17;99352.78;5107302;28;20713;-60
2023/08/20 02:51:22;;;;;;;5.82;4.20;;;;;;;23.04;87.75;99351.72;5107642;28;20193;-60
2023/08/20 02:53:49;;;;;;;7.45;4.60;;;;;;;22.99;88.11;99361.09;5107893;28;20201;-60
2023/08/20 02:56:17;;;;;;;6.53;4.30;;;;;;;22.96;87.59;99351.84;5107049;28;20604;-60
2023/08/20 02:58:44;;;;;;;7.65;4.40;;;;;;;22.95;87.68;99354.63;5107683;28;20198;-60
2023/08/20 03:01:19;;;;;;;6.75;4.30;;;;;;;22.91;88.44;99355.97;5107691;28;20217;-60
2023/08/20 03:03:46;;;;;;;7.82;4.93;;;;;;;22.81;88.80;99354.47;5109153;28;20229;-60
2023/08/20 03:06:13;;;;;;;6.90;5.03;;;;;;;22.79;88.32;99353.81;5111252;28;20198;-60
2023/08/20 03:08:40;;;;;;;5.68;4.25;;;;;;;22.72;88.04;99352.97;5111578;28;20233;-60
2023/08/20 03:11:07;;;;;;;7.57;4.22;;;;;;;22.74;88.57;99356.16;5111060;28;20194;-60
2023/08/20 03:13:35;;;;;;;8.02;4.53;;;;;;;22.74;88.93;99364.00;5110884;28;20205;-59
2023/08/20 03:16:03;;;;;;;7.25;4.50;;;;;;;22.72;89.05;99366.00;5111306;28;20627;-60
2023/08/20 03:18:30;;;;;;;7.32;4.22;;;;;;;22.68;89.35;99364.72;5110664;28;20693;-60
2023/08/20 03:20:57;;;;;;;8.07;4.88;;;;;;;22.68;89.72;99367.31;5110566;28;20205;-59
2023/08/20 03:23:24;;;;;;;6.60;4.45;;;;;;;22.66;89.66;99361.50;5110891;28;20236;-60
2023/08/20 03:25:51;;;;;;;13.30;4.93;;;;;;;22.62;89.04;99359.44;5110605;28;20202;-60
2023/08/20 03:28:19;;;;;;;7.82;4.55;;;;;;;22.59;89.84;99356.19;5109874;28;20213;-60
2023/08/20 03:30:47;;;;;;;8.43;4.35;;;;;;;22.55;89.74;99359.38;5110814;28;20201;-60
2023/08/20 03:33:14;;;;;;;6.10;4.20;;;;;;;22.47;90.07;99352.44;5110891;28;20508;-60
2023/08/20 03:35:41;;;;;;;7.72;4.68;;;;;;;22.45;89.79;99353.59;5110012;28;20210;-60
2023/08/20 03:38:08;;;;;;;7.80;4.65;;;;;;;22.38;90.14;99359.53;5110700;28;20197;-59
2023/08/20 03:40:35;;;;;;;7.50;4.38;;;;;;;22.34;89.71;99352.25;5110631;28;20194;-60
2023/08/20 03:43:01;;;;;;;6.20;4.50;;;;;;;22.31;89.33;99358.66;5109788;27;20765;-60
2023/08/20 03:45:30;;;;;;;7.18;4.15;;;;;;;22.33;89.88;99359.25;5109917;28;20260;-59
2023/08/20 03:47:58;;;;;;;7.57;5.00;;;;;;;22.31;88.97;99356.06;5110589;27;20201;-60
2023/08/20 03:50:25;;;;;;;7.15;4.68;;;;;;;22.30;88.76;99362.22;5110188;28;20197;-60
2023/08/20 03:52:52;;;;;;;11.00;4.85;;;;;;;22.29;88.54;99362.44;5109883;28;20467;-60
2023/08/20 03:55:19;;;;;;;7.13;4.47;;;;;;;22.30;88.08;99364.03;5110345;27;20696;-60
2023/08/20 03:57:45;;;;;;;6.88;4.55;;;;;;;22.33;87.36;99361.88;5110317;27;20659;-60
2023/08/20 04:00:13;;;;;;;7.82;4.80;;;;;;;22.34;87.43;99363.50;5109667;28;20197;-60
2023/08/20 04:02:40;;;;;;;9.27;4.43;;;;;;;22.33;87.41;99359.25;5110511;28;20193;-60
2023/08/20 04:05:09;;;;;;;6.78;4.45;;;;;;;22.37;87.87;99357.13;5110358;28;20713;-60
2023/08/20 04:07:36;;;;;;;8.35;4.38;;;;;;;22.44;87.69;99354.59;5109627;27;20209;-60
2023/08/20 04:10:03;;;;;;;7.15;4.57;;;;;;;22.49;87.48;99350.47;5109776;28;20205;-60
2023/08/20 04:12:30;;;;;;;5.78;4.18;;;;;;;22.53;88.28;99350.91;5109967;28;20292;-60
2023/08/20 04:14:56;;;;;;;6.93;4.53;;;;;;;22.53;87.86;99356.13;5108866;28;20614;-59
2023/08/20 04:17:23;;;;;;;6.30;4.43;;;;;;;22.59;87.77;99355.41;5109599;28;20193;-60
2023/08/20 04:19:50;;;;;;;6.20;4.22;;;;;;;22.67;88.01;99357.91;5109682;28;20394;-60
2023/08/20 04:22:18;;;;;;;6.13;3.88;;;;;;;22.75;88.12;99349.97;5109476;28;20208;-60
2023/08/20 04:24:45;;;;;;;6.82;5.00;;;;;;;22.86;87.94;99361.72;5109130;28;20225;-60
2023/08/20 04:27:12;;;;;;;6.85;4.22;;;;;;;22.92;88.26;99363.63;5109815;28;20587;-60
2023/08/20 04:29:39;;;;;;;7.45;4.20;;;;;;;22.94;89.08;99358.19;5109985;28;20201;-60
2023/08/20 04:32:06;;;;;;;8.60;4.70;;;;;;;22.99;88.81;99361.09;5108825;28;20209;-60
2023/08/20 04:34:33;;;;;;;6.50;4.45;;;;;;;23.02;88.83;99363.34;5109200;28;20445;-60
2023/08/20 04:37:00;;;;;;;8.02;4.32;;;;;;;23.07;88.07;99358.38;5109606;28;20201;-59
2023/08/20 04:39:28;;;;;;;6.20;3.88;;;;;;;23.13;88.74;99370.69;5109027;28;20674;-60
2023/08/20 04:41:57;;;;;;;6.18;4.43;;;;;;;23.17;88.17;99371.91;5108677;28;20201;-60
2023/08/20 04:44:24;;;;;;;5.82;4.18;;;;;;;23.29;88.11;99372.22;5109232;28;20594;-60
2023/08/20 04:46:50;;;;;;;5.55;3.88;;;;;;;23.38;87.74;99375.53;5108744;28;20839;-60
2023/08/20 04:49:17;;;;;;;5.80;4.15;;;;;;;23.45;87.04;99379.03;5107896;28;20213;-60
2023/08/20 04:51:44;;;;;;;8.05;4.43;;;;;;;23.53;87.25;99384.09;5107636;28;20701;-60
2023/08/20 04:54:11;;;;;;;5.57;4.18;;;;;;;23.61;86.74;99376.13;5108217;28;20635;-60
2023/08/20 04:56:39;;;;;;;6.38;4.20;;;;;;;23.67;86.16;99375.38;5108681;28;20201;-60
2023/08/20 04:59:06;;;;;;;6.00;4.10;;;;;;;23.74;85.71;99380.72;5109173;28;20604;-59
2023/08/20 05:01:32;;;;;;;7.38;4.32;;;;;;;23.79;83.26;99382.72;5109058;28;20209;-60
2023/08/20 05:03:59;;;;;;;7.30;3.80;;;;;;;23.81;86.64;99375.53;5108302;28;20209;-60
2023/08/20 05:06:26;;;;;;;6.10;4.45;;;;;;;23.87;85.95;99380.78;5108961;28;20204;-60
2023/08/20 05:08:53;;;;;;;6.97;4.72;;;;;;;23.96;84.55;99376.22;5108895;28;20594;-59
2023/08/20 05:11:19;;;;;;;5.45;4.15;;;;;;;24.06;82.93;99368.88;5108743;28;20212;-60
2023/08/20 05:13:50;;;;;;;6.22;4.30;;;;;;;24.17;82.64;99380.59;5109006;28;20201;-60
2023/08/20 05:16:17;;;;;;;5.38;3.88;;;;;;;24.34;82.03;99375.88;5108731;28;20686;-60
2023/08/20 05:18:44;;;;;;;5.68;3.78;;;;;;;24.53;81.49;99380.44;5108822;28;20197;-60
2023/08/20 05:21:13;;;;;;;8.30;4.10;;;;;;;24.74;80.78;99386.53;5108663;28;20201;-60
2023/08/20 05:23:40;;;;;;;7.22;3.95;;;;;;;24.93;80.27;99391.06;5108792;28;20297;-60
2023/08/20 05:26:07;;;;;;;5.47;3.90;;;;;;;25.14;79.50;99391.94;5108819;28;20240;-60
2023/08/20 05:28:34;;;;;;;4.00;3.25;;;;;;;25.37;77.45;99389.78;5108558;28;20670;-60
2023/08/20 05:31:02;;;;;;;7.78;3.88;;;;;;;25.57;78.01;99396.81;5108502;28;20197;-60
2023/08/20 05:33:29;;;;;;;6.15;4.25;;;;;;;25.75;77.17;99394.44;5108565;28;20202;-60
2023/08/20 05:35:56;;;;;;;6.10;4.05;;;;;;;25.96;73.90;99403.91;5108387;28;20662;-60
2023/08/20 05:38:23;;;;;;;6.78;4.20;;;;;;;26.18;74.00;99407.13;5108540;28;20204;-61
2023/08/20 05:40:50;;;;;;;9.00;4.70;;;;;;;26.40;72.35;99402.41;5108620;28;20200;-60
2023/08/20 05:43:16;;;;;;;6.75;4.40;;;;;;;26.61;72.76;99404.78;5108202;28;20217;-60
2023/08/20 05:45:43;;;;;;;6.00;3.72;;;;;;;26.76;74.12;99396.69;5108301;28;20598;-60
2023/08/20 05:48:11;;;;;;;5.90;3.63;;;;;;;26.97;71.05;99405.28;5108441;28;20193;-60
2023/08/20 05:50:38;;;;;;;6.72;4.28;;;;;;;27.17;67.61;99406.00;5108763;28;20202;-60
2023/08/20 05:53:05;;;;;;;5.03;3.70;;;;;;;27.36;71.31;99411.34;5108788;28;20367;-61
2023/08/20 05:55:32;;;;;;;6.75;4.10;;;;;;;27.59;68.26;99416.03;5108220;28;20200;-60
2023/08/20 05:57:59;;;;;;;5.80;3.95;;;;;;;27.74;72.35;99419.94;5108089;28;20201;-61
2023/08/20 06:00:25;;;;;;;6.82;4.03;;;;;;;27.94;68.73;99419.00;5108214;28;20263;-61
2023/08/20 06:02:52;;;;;;;5.63;3.95;;;;;;;28.17;64.95;99415.75;5108179;28;20198;-60
2023/08/20 06:05:20;;;;;;;4.85;3.88;;;;;;;28.39;67.39;99421.38;5108153;28;20236;-61
2023/08/20 06:07:47;;;;;;;4.45;3.63;;;;;;;28.57;66.40;99408.28;5108003;28;20197;-61
2023/08/20 06:10:14;;;;;;;5.32;3.90;;;;;;;28.68;64.79;99414.59;5108213;28;20197;-60
2023/08/20 06:12:41;;;;;;;6.50;3.88;;;;;;;28.72;65.61;99415.00;5107997;28;20198;-61
2023/08/20 06:15:08;;;;;;;5.28;4.05;;;;;;;28.74;64.45;99412.91;5108372;28;20228;-61
2023/08/20 06:17:35;;;;;;;5.72;4.00;;;;;;;28.78;65.96;99414.09;5108148;28;20199;-61
2023/08/20 06:20:05;;;;;;;5.70;4.10;;;;;;;28.81;64.47;99416.28;5107825;28;20209;-61
2023/08/20 06:22:33;;;;;;;5.65;3.90;;;;;;;28.82;61.30;99420.50;5107881;28;20504;-61
2023/08/20 06:25:00;;;;;;;5.38;4.18;;;;;;;29.06;66.15;99411.75;5107666;28;20239;-61
2023/08/20 06:27:26;;;;;;;5.95;3.75;;;;;;;29.18;63.06;99419.69;5107921;28;20197;-61
2023/08/20 06:29:53;;;;;;;5.68;4.15;;;;;;;29.34;64.80;99418.22;5107942;28;20224;-61
2023/08/20 06:32:20;;;;;;;5.70;4.20;;;;;;;29.55;60.79;99425.63;5107802;28;20204;-61
2023/08/20 06:34:47;;;;;;;6.95;4.13;;;;;;;29.76;62.51;99432.19;5107639;28;20198;-61
2023/08/20 06:37:14;;;;;;;4.80;3.88;;;;;;;29.88;59.62;99426.94;5108058;28;20244;-61
2023/08/20 06:39:42;;;;;;;6.90;3.88;;;;;;;29.97;58.42;99425.56;5111965;28;20197;-61
2023/08/20 06:42:09;;;;;;;5.05;3.95;;;;;;;30.06;59.40;99436.56;5111761;28;20200;-61
2023/08/20 06:44:36;;;;;;;5.95;4.50;;;;;;;30.23;62.15;99426.97;5111920;28;20201;-61
2023/08/20 06:47:03;;;;;;;5.13;4.03;;;;;;;30.36;64.39;99430.38;5111631;28;20717;-61
2023/08/20 06:49:29;;;;;;;5.80;3.97;;;;;;;30.50;59.31;99438.84;5111852;28;20228;-61
2023/08/20 06:51:56;;;;;;;6.20;4.20;;;;;;;30.66;58.42;99440.75;5111630;28;20198;-61
2023/08/20 06:54:23;;;;;;;5.43;4.28;;;;;;;30.60;54.77;99437.22;5111517;28;20206;-62
2023/08/20 06:56:52;;;;;;;4.70;3.80;;;;;;;30.59;53.86;99440.88;5111243;28;20202;-61
2023/08/20 06:59:18;;;;;;;6.00;4.00;;;;;;;30.77;52.39;99447.84;5111557;28;20197;-61
2023/08/20 07:01:45;;;;;;;6.00;4.30;;;;;;;30.90;53.96;99439.69;5111427;28;20209;-61
2023/08/20 07:04:12;;;;;;;4.97;3.80;;;;;;;31.13;59.73;99448.56;5111341;28;20200;-61
2023/08/20 07:06:40;;;;;;;6.05;3.75;;;;;;;31.29;51.16;99447.78;5111153;28;20467;-61
2023/08/20 07:09:06;;;;;;;5.05;3.92;;;;;;;31.33;53.04;99450.75;5111174;28;20600;-61
2023/08/20 07:11:33;;;;;;;5.72;4.15;;;;;;;31.45;53.79;99448.88;5111043;28;20236;-61
2023/08/20 07:14:02;;;;;;;5.10;3.67;;;;;;;31.58;51.75;99453.06;5111161;28;20221;-61
2023/08/20 07:16:29;;;;;;;6.22;4.28;;;;;;;31.67;51.41;99454.25;5111512;28;20197;-61
2023/08/20 07:18:56;;;;;;;5.45;4.00;;;;;;;31.87;49.55;99466.19;5110856;28;20201;-62
2023/08/20 07:21:23;;;;;;;7.68;5.00;;;;;;;32.06;53.61;99454.34;5110960;28;20446;-62
2023/08/20 07:23:49;;;;;;;4.85;4.00;;;;;;;32.13;49.21;99457.63;5111112;28;20213;-61
2023/08/20 07:26:16;;;;;;;4.68;3.72;;;;;;;32.15;51.88;99460.84;5110710;27;20252;-61
2023/08/20 07:28:59;;;;;;;5.30;4.22;;;;;;;32.10;48.13;99457.31;5111101;28;20592;-62
2023/08/20 07:31:28;;;;;;;5.05;3.80;;;;;;;32.12;51.45;99461.31;5110819;28;20260;-62
2023/08/20 07:33:56;;;;;;;4.75;3.90;;;;;;;32.20;48.63;99460.91;5110728;28;20209;-61
2023/08/20 07:36:23;;;;;;;7.13;4.40;;;;;;;32.14;48.08;99467.16;5110803;28;20255;-62
2023/08/20 07:38:51;;;;;;;5.13;3.80;;;;;;;32.29;52.23;99463.13;5110652;28;20205;-62
2023/08/20 07:41:20;;;;;;;5.75;4.20;;;;;;;32.46;54.34;99462.09;5110885;28;20228;-62
2023/08/20 07:43:48;;;;;;;4.45;3.92;;;;;;;32.73;51.76;99465.84;5110467;28;20205;-62
2023/08/20 07:46:14;;;;;;;5.97;4.45;;;;;;;32.91;47.56;99468.16;5110437;28;20266;-62
2023/08/20 07:48:43;;;;;;;5.15;4.43;;;;;;;32.99;50.25;99462.47;5110439;28;20197;-62
2023/08/20 07:51:10;;;;;;;6.20;4.45;;;;;;;33.07;50.95;99458.53;5109670;28;20599;-61
2023/08/20 07:53:37;;;;;;;4.85;4.10;;;;;;;33.28;50.94;99463.00;5110695;28;20201;-62
2023/08/20 07:56:04;;;;;;;4.63;3.88;;;;;;;33.19;45.89;99461.84;5110418;28;20213;-62
2023/08/20 07:58:31;;;;;;;5.63;4.43;;;;;;;33.18;50.22;99460.25;5110070;28;20244;-62
2023/08/20 08:00:58;;;;;;;5.20;4.25;;;;;;;33.40;52.25;99462.84;5110270;27;20193;-62
2023/08/20 08:03:25;;;;;;;5.60;4.15;;;;;;;33.42;52.41;99463.38;5110257;28;20197;-62
2023/08/20 08:05:55;;;;;;;6.13;4.32;;;;;;;33.36;43.81;99464.38;5109649;28;20236;-62
2023/08/20 08:08:22;;;;;;;6.85;4.10;;;;;;;33.47;51.98;99468.75;5108899;28;20194;-62
2023/08/20 08:10:49;;;;;;;5.18;4.00;;;;;;;33.36;47.86;99461.75;5109483;28;20216;-62
2023/08/20 08:13:19;;;;;;;5.88;3.92;;;;;;;33.62;48.80;99464.66;5110266;28;20200;-61
2023/08/20 08:15:46;;;;;;;5.93;3.90;;;;;;;33.73;45.90;99461.81;5110244;28;20193;-61
2023/08/20 08:18:13;;;;;;;7.22;4.20;;;;;;;33.77;46.83;99462.09;5110139;28;20266;-62
2023/08/20 08:20:40;;;;;;;6.00;4.30;;;;;;;33.85;49.11;99458.19;5110376;28;20225;-62
2023/08/20 08:23:08;;;;;;;4.72;4.00;;;;;;;33.76;43.98;99471.13;5109863;28;20221;-62
2023/08/20 08:25:35;;;;;;;6.85;4.38;;;;;;;33.85;47.81;99458.97;5109697;27;20233;-62
2023/08/20 08:28:02;;;;;;;5.65;3.80;;;;;;;34.14;44.56;99461.31;5109592;28;20233;-62
2023/08/20 08:30:30;;;;;;;5.70;3.92;;;;;;;34.15;44.94;99465.56;5109748;28;20205;-61
2023/08/20 08:32:56;;;;;;;5.75;3.80;;;;;;;34.22;44.10;99466.16;5109589;28;20648;-62
2023/08/20 08:35:23;;;;;;;7.20;3.90;;;;;;;34.11;43.38;99461.84;5108319;28;20679;-61
2023/08/20 08:37:50;;;;;;;5.30;4.05;;;;;;;33.99;43.79;99457.50;5109185;27;20197;-62
2023/08/20 08:40:18;;;;;;;5.28;4.05;;;;;;;34.13;48.09;99455.22;5109742;28;20197;-62
2023/08/20 08:42:48;;;;;;;4.97;3.85;;;;;;;34.30;44.89;99460.38;5109654;28;20202;-61
2023/08/20 08:45:17;;;;;;;6.15;4.10;;;;;;;34.24;42.48;99462.19;5109222;28;20595;-61
2023/08/20 08:47:44;;;;;;;4.10;3.63;;;;;;;34.47;45.58;99463.63;5109416;28;20201;-61
2023/08/20 08:50:11;;;;;;;5.00;3.40;;;;;;;34.56;39.82;99457.84;5109221;28;20201;-62
2023/08/20 08:52:40;;;;;;;4.45;3.50;;;;;;;34.58;41.62;99458.38;5109213;28;20224;-62
2023/08/20 08:55:08;;;;;;;4.20;3.50;;;;;;;34.76;43.19;99452.59;5109161;28;20202;-62
2023/08/20 08:57:37;;;;;;;5.63;3.92;;;;;;;34.69;40.50;99458.16;5109255;28;20528;-62
2023/08/20 09:00:04;;;;;;;5.63;4.18;;;;;;;34.88;42.67;99455.03;5108829;28;20208;-62
2023/08/20 09:02:31;;;;;;;4.45;3.50;;;;;;;35.17;41.94;99444.75;5108912;28;20193;-62
2023/08/20 09:04:59;;;;;;;3.92;3.40;;;;;;;35.21;39.38;99456.44;5109118;28;20202;-62
2023/08/20 09:07:25;;;;;;;6.38;3.90;;;;;;;35.38;42.09;99457.00;5108914;28;20242;-62
2023/08/20 09:09:59;;;;;;;5.25;4.07;;;;;;;34.85;39.94;99456.38;5108781;28;20194;-62
2023/08/20 09:12:26;;;;;;;4.13;3.72;;;;;;;35.01;42.14;99456.38;5109102;28;20189;-62
2023/08/20 09:14:57;;;;;;;7.35;3.53;;;;;;;35.11;40.89;99453.75;5108761;28;20208;-62
2023/08/20 09:17:26;;;;;;;4.35;3.45;;;;;;;35.28;41.27;99458.84;5108921;28;20197;-59
2023/08/20 09:19:55;;;;;;;4.32;3.58;;;;;;;35.40;42.43;99455.94;5108628;28;20682;-59
2023/08/20 09:22:22;;;;;;;5.60;3.90;;;;;;;35.41;40.94;99452.22;5108475;28;20194;-59
2023/08/20 09:24:54;;;;;;;4.55;3.70;;;;;;;35.59;42.70;99449.84;5108660;28;20610;-59
2023/08/20 09:27:21;;;;;;;4.28;3.45;;;;;;;35.71;41.57;99452.22;5108926;28;20217;-58
2023/08/20 09:29:49;;;;;;;4.65;3.65;;;;;;;35.76;38.15;99460.22;5108285;28;20548;-58
2023/08/20 09:32:18;;;;;;;3.88;3.28;;;;;;;35.61;37.73;99457.56;5108648;28;20205;-58
2023/08/20 09:34:46;;;;;;;6.60;3.58;;;;;;;35.75;38.60;99455.97;5108535;28;20193;-58
2023/08/20 09:37:14;;;;;;;4.75;3.83;;;;;;;35.57;39.18;99445.84;5108807;28;20225;-58
2023/08/20 09:39:42;;;;;;;4.47;3.65;;;;;;;35.40;39.61;99453.25;5108666;28;20197;-58
2023/08/20 09:42:10;;;;;;;4.65;3.80;;;;;;;35.61;38.09;99457.56;5108800;28;20200;-58
2023/08/20 09:44:38;;;;;;;5.13;3.83;;;;;;;35.61;41.76;99446.94;5108404;28;20205;-58
2023/08/20 09:47:07;;;;;;;5.03;3.78;;;;;;;35.97;43.48;99449.53;5108300;28;20334;-58
2023/08/20 09:49:38;;;;;;;4.72;3.55;;;;;;;36.04;37.48;99444.75;5108563;28;20205;-58
2023/08/20 09:52:07;;;;;;;8.60;3.63;;;;;;;35.86;36.71;99442.63;5108231;28;20201;-58
2023/08/20 09:54:46;;;;;;;4.15;3.45;;;;;;;35.82;38.20;99448.50;5108395;28;20746;-58
2023/08/20 09:57:31;;;;;;;4.47;3.47;;;;;;;36.06;38.84;99441.81;5108356;28;20232;-58
2023/08/20 09:59:59;;;;;;;5.57;3.50;;;;;;;36.12;38.24;99441.53;5108197;28;20201;-58
2023/08/20 10:02:27;;;;;;;5.30;3.42;;;;;;;36.21;36.79;99441.78;5108445;28;20548;-58
2023/08/20 10:04:55;;;;;;;5.03;3.58;;;;;;;35.96;36.56;99434.66;5108142;28;20280;-58
2023/08/20 10:07:25;;;;;;;4.57;3.47;;;;;;;36.07;38.40;99438.88;5108227;28;20232;-58
2023/08/20 10:09:53;;;;;;;5.15;3.53;;;;;;;35.89;38.27;99440.22;5107872;28;20205;-58
2023/08/20 10:12:21;;;;;;;5.65;3.35;;;;;;;35.97;38.32;99438.88;5108439;28;20197;-58
2023/08/20 10:14:48;;;;;;;4.22;2.90;;;;;;;36.00;34.26;99433.03;5111103;28;20217;-58
2023/08/20 10:17:15;;;;;;;4.13;3.28;;;;;;;36.29;38.61;99437.75;5112059;28;20201;-58
2023/08/20 10:19:43;;;;;;;3.72;3.30;;;;;;;36.23;37.40;99429.00;5110976;28;20277;-58
2023/08/20 10:22:12;;;;;;;6.57;3.53;;;;;;;36.05;35.53;99438.38;5112513;28;20638;-58
2023/08/20 10:24:47;;;;;;;5.55;3.60;;;;;;;36.01;36.22;99438.09;5112345;28;20240;-58
2023/08/20 10:27:24;;;;;;;6.57;3.45;;;;;;;36.13;36.36;99432.50;5112105;28;20232;-59
2023/08/20 10:29:51;;;;;;;4.20;3.63;;;;;;;35.99;38.55;99431.44;5111988;28;20197;-58
2023/08/20 10:32:17;;;;;;;6.82;3.60;;;;;;;35.93;38.23;99428.00;5111900;28;20677;-59
2023/08/20 10:34:51;;;;;;;4.90;3.95;;;;;;;36.07;37.13;99425.56;5112141;28;20673;-58
2023/08/20 10:37:27;;;;;;;5.13;3.45;;;;;;;35.88;37.29;99421.88;5111915;28;20202;-58
2023/08/20 10:39:55;;;;;;;6.10;4.00;;;;;;;36.06;40.26;99417.88;5111521;28;20189;-58
2023/08/20 10:42:29;;;;;;;4.55;3.80;;;;;;;36.13;39.02;99415.72;5111753;28;20262;-59
2023/08/20 10:45:08;;;;;;;5.22;3.63;;;;;;;36.04;38.69;99418.94;5111729;28;20197;-58
2023/08/20 10:47:43;;;;;;;5.82;4.13;;;;;;;36.17;38.20;99422.88;5111887;28;20232;-58
2023/08/20 10:50:11;;;;;;;5.43;3.72;;;;;;;36.33;39.31;99414.84;5111991;28;20193;-58
2023/08/20 10:52:41;;;;;;;5.18;3.92;;;;;;;36.42;38.32;99413.19;5111477;28;20262;-59
2023/08/20 10:55:09;;;;;;;6.90;4.22;;;;;;;36.25;38.49;99410.91;5111540;28;20209;-58
2023/08/20 10:57:37;;;;;;;5.97;4.03;;;;;;;36.36;35.80;99399.09;5111479;28;20233;-58
2023/08/20 11:00:11;;;;;;;5.32;4.07;;;;;;;36.35;39.60;99397.53;5111638;28;20686;-59
2023/08/20 11:02:38;;;;;;;7.70;4.25;;;;;;;36.14;38.21;99409.34;5111467;28;20200;-58
2023/08/20 11:05:17;;;;;;;5.00;3.88;;;;;;;36.17;36.56;99396.28;5111465;28;20205;-58
2023/08/20 11:07:46;;;;;;;4.30;3.53;;;;;;;36.36;39.45;99398.31;5111533;28;20249;-58
2023/08/20 11:10:15;;;;;;;4.05;3.50;;;;;;;36.47;37.40;99395.31;5111105;28;20194;-58
2023/08/20 11:12:42;;;;;;;4.43;3.60;;;;;;;36.34;37.58;99395.94;5111305;28;20205;-59
2023/08/20 11:15:10;;;;;;;5.60;3.70;;;;;;;36.69;36.26;99392.31;5111191;28;20418;-58
2023/08/20 11:17:41;;;;;;;4.70;3.53;;;;;;;36.58;35.66;99393.44;5111073;28;20292;-59
2023/08/20 11:20:09;;;;;;;5.00;3.90;;;;;;;36.66;37.31;99382.22;5110905;28;20300;-59
2023/08/20 11:22:38;;;;;;;4.68;3.70;;;;;;;36.23;35.65;99376.53;5111085;28;20202;-58
2023/08/20 11:25:06;;;;;;;4.97;3.80;;;;;;;36.44;37.17;99371.91;5110609;28;20603;-58
2023/08/20 11:27:33;;;;;;;7.90;4.70;;;;;;;36.40;36.18;99375.41;5110655;28;20745;-58
2023/08/20 11:30:00;;;;;;;6.90;4.03;;;;;;;36.14;36.49;99370.19;5111203;28;20201;-58
2023/08/20 11:32:27;;;;;;;4.25;3.45;;;;;;;36.23;37.91;99360.56;5110846;28;20193;-58
2023/08/20 11:34:54;;;;;;;6.32;3.72;;;;;;;36.35;35.76;99360.25;5110907;28;20612;-59
2023/08/20 11:37:22;;;;;;;6.75;3.75;;;;;;;36.21;34.31;99354.72;5110766;28;20232;-58